createdAt,value
2022-09-16T00:04:58.730Z,13.07
2022-09-16T00:10:01.205Z,12.98
2022-09-16T00:15:04.312Z,12.92
2022-09-16T00:20:07.478Z,12.85
2022-09-16T00:25:10.121Z,12.76
2022-09-16T00:30:12.863Z,12.63
2022-09-16T00:35:15.203Z,12.54
2022-09-16T00:40:17.667Z,12.59
2022-09-16T00:45:23.440Z,12.56
2022-09-16T00:50:38.616Z,12.53
2022-09-16T00:55:40.994Z,12.39
2022-09-16T01:00:44.045Z,12.34
2022-09-16T01:05:46.834Z,12.23
2022-09-16T01:10:49.180Z,12.38
2022-09-16T01:16:13.196Z,12.37
2022-09-16T01:21:21.485Z,12.27
2022-09-16T01:26:42.330Z,12.31
2022-09-16T01:32:10.576Z,12.18
2022-09-16T01:37:37.198Z,12.27
2022-09-16T01:42:50.907Z,12.28
2022-09-16T01:47:57.725Z,12.18
2022-09-16T01:53:15.792Z,12.16
2022-09-16T01:58:28.209Z,12.24
2022-09-16T02:03:35.819Z,12.19
2022-09-16T02:08:41.934Z,12.29
2022-09-16T02:14:06.866Z,12.06
2022-09-16T02:19:32.562Z,11.99
2022-09-16T02:24:36.108Z,11.99
2022-09-16T02:30:00.660Z,11.94
2022-09-16T02:35:04.326Z,11.88
2022-09-16T02:40:13.465Z,11.77
2022-09-16T02:45:16.493Z,11.81
2022-09-16T02:50:27.752Z,11.74
2022-09-16T02:55:41.262Z,11.73
2022-09-16T03:00:46.938Z,11.67
2022-09-16T03:06:15.273Z,11.55
2022-09-16T03:11:20.681Z,11.67
2022-09-16T03:16:41.554Z,11.70
2022-09-16T03:21:56.558Z,11.56
2022-09-16T03:27:29.597Z,11.53
2022-09-16T03:32:43.629Z,11.47
2022-09-16T03:37:47.012Z,11.53
2022-09-16T03:42:49.465Z,11.55
2022-09-16T03:47:53.814Z,11.32
2022-09-16T03:52:56.115Z,11.39
2022-09-16T03:57:58.439Z,11.40
2022-09-16T04:03:01.414Z,11.39
2022-09-16T04:08:03.837Z,11.42
2022-09-16T04:13:06.303Z,11.38
2022-09-16T04:18:08.609Z,11.37
2022-09-16T04:23:11.012Z,11.36
2022-09-16T04:28:13.307Z,11.35
2022-09-16T04:33:15.689Z,11.41
2022-09-16T04:38:18.115Z,11.45
2022-09-16T04:43:20.420Z,11.49
2022-09-16T04:48:22.945Z,11.68
2022-09-16T04:53:25.274Z,11.63
2022-09-16T04:58:29.998Z,11.85
2022-09-16T05:03:33.196Z,11.89
2022-09-16T05:08:35.661Z,11.93
2022-09-16T05:13:38.664Z,11.86
2022-09-16T05:18:42.431Z,11.99
2022-09-16T05:23:46.885Z,12.14
2022-09-16T05:28:51.057Z,12.70
2022-09-16T05:33:56.243Z,12.84
2022-09-16T05:39:21.494Z,13.12
2022-09-16T05:44:21.320Z,12.91
2022-09-16T05:49:24.035Z,13.16
2022-09-16T05:54:26.538Z,13.20
2022-09-16T05:59:28.832Z,13.09
2022-09-16T06:04:31.206Z,13.41
2022-09-16T06:09:33.531Z,13.42
2022-09-16T06:14:35.897Z,13.61
2022-09-16T06:19:38.218Z,13.81
2022-09-16T06:24:40.538Z,13.62
2022-09-16T06:29:42.803Z,13.68
2022-09-16T06:34:45.168Z,13.59
2022-09-16T06:39:47.580Z,13.82
2022-09-16T06:44:49.911Z,13.55
2022-09-16T06:49:52.343Z,13.65
2022-09-16T06:54:55.366Z,13.89
2022-09-16T06:59:58.295Z,14.00
2022-09-16T07:05:02.169Z,14.07
2022-09-16T07:10:05.438Z,13.82
2022-09-16T07:15:08.467Z,14.23
2022-09-16T07:20:10.914Z,14.18
2022-09-16T07:25:13.228Z,14.34
2022-09-16T07:30:15.725Z,14.62
2022-09-16T07:35:18.054Z,14.64
2022-09-16T07:40:20.536Z,14.66
2022-09-16T07:45:22.952Z,14.71
2022-09-16T07:50:25.406Z,14.65
2022-09-16T07:55:27.797Z,14.94
2022-09-16T08:00:30.129Z,14.70
2022-09-16T08:05:32.807Z,14.74
2022-09-16T08:10:37.079Z,14.63
2022-09-16T08:15:39.357Z,14.90
2022-09-16T08:20:41.715Z,14.58
2022-09-16T08:25:44.107Z,14.42
2022-09-16T08:30:49.042Z,15.05
2022-09-16T08:36:05.390Z,15.64
2022-09-16T08:41:18.845Z,15.90
2022-09-16T08:46:29.882Z,15.68
2022-09-16T08:51:32.947Z,16.64
2022-09-16T08:56:38.515Z,16.29
2022-09-16T09:02:08.155Z,16.55
2022-09-16T09:07:29.839Z,16.51
2022-09-16T09:13:01.232Z,16.48
2022-09-16T09:18:38.439Z,16.99
2022-09-16T09:23:55.876Z,16.77
2022-09-16T09:29:16.344Z,16.63
2022-09-16T09:34:24.644Z,17.43
2022-09-16T09:39:38.172Z,16.77
2022-09-16T09:44:48.370Z,16.81
2022-09-16T09:49:58.631Z,16.43
2022-09-16T09:55:16.380Z,17.23
2022-09-16T10:00:19.331Z,17.09
2022-09-16T10:05:23.995Z,17.21
2022-09-16T10:10:28.722Z,17.34
2022-09-16T10:15:32.047Z,17.35
2022-09-16T10:20:45.557Z,17.55
2022-09-16T10:25:48.002Z,17.65
2022-09-16T10:30:55.448Z,16.99
2022-09-16T10:36:09.636Z,17.37
2022-09-16T10:41:22.193Z,17.00
2022-09-16T10:46:24.706Z,17.32
2022-09-16T10:51:33.559Z,18.13
2022-09-16T10:56:48.306Z,17.95
2022-09-16T11:02:09.693Z,17.97
2022-09-16T11:07:24.285Z,17.75
2022-09-16T11:12:43.782Z,17.73
2022-09-16T11:18:01.867Z,17.74
2022-09-16T11:23:25.322Z,17.37
2022-09-16T11:28:46.016Z,17.43
2022-09-16T11:34:01.425Z,17.75
2022-09-16T11:39:25.297Z,18.02
2022-09-16T11:44:46.456Z,18.79
2022-09-16T11:49:54.536Z,19.08
2022-09-16T11:55:24.000Z,19.21
2022-09-16T12:00:26.563Z,20.02
2022-09-16T12:05:36.550Z,19.60
2022-09-16T12:10:49.441Z,19.01
2022-09-16T12:15:55.316Z,19.51
2022-09-16T12:21:09.462Z,19.31
2022-09-16T12:26:37.162Z,19.54
2022-09-16T12:31:45.663Z,18.78
2022-09-16T12:36:59.500Z,19.05
2022-09-16T12:42:07.806Z,19.45
2022-09-16T12:47:40.838Z,19.42
2022-09-16T12:52:57.443Z,19.23
2022-09-16T12:58:36.985Z,18.96
2022-09-16T13:03:43.648Z,18.93
2022-09-16T13:08:46.293Z,18.63
2022-09-16T13:13:52.265Z,18.52
2022-09-16T13:19:16.659Z,18.59
2022-09-16T13:24:37.924Z,19.17
2022-09-16T13:29:44.870Z,18.58
2022-09-16T13:34:47.276Z,19.34
2022-09-16T13:39:50.455Z,19.85
2022-09-16T13:44:53.093Z,20.13
2022-09-16T13:50:15.577Z,18.93
2022-09-16T13:55:26.282Z,19.57
2022-09-16T14:00:37.720Z,19.85
2022-09-16T14:06:18.474Z,19.65
2022-09-16T14:11:27.750Z,19.69
2022-09-16T14:16:31.278Z,19.01
2022-09-16T14:21:33.873Z,18.48
2022-09-16T14:26:36.260Z,18.34
2022-09-16T14:31:39.591Z,18.53
2022-09-16T14:36:43.432Z,18.33
2022-09-16T14:41:49.004Z,18.24
2022-09-16T14:47:09.038Z,18.09
2022-09-16T14:52:21.272Z,19.22
2022-09-16T14:57:25.821Z,18.96
2022-09-16T15:02:39.002Z,18.49
2022-09-16T15:08:02.607Z,18.62
2022-09-16T15:13:13.545Z,18.55
2022-09-16T15:18:28.811Z,18.00
2022-09-16T15:23:31.432Z,17.86
2022-09-16T15:28:34.189Z,17.65
2022-09-16T15:33:42.681Z,18.03
2022-09-16T15:38:45.035Z,17.50
2022-09-16T15:43:47.587Z,17.61
2022-09-16T15:49:00.532Z,17.50
2022-09-16T15:54:08.963Z,17.55
2022-09-16T15:59:31.697Z,17.65
2022-09-16T16:04:35.318Z,17.60
2022-09-16T16:09:40.482Z,17.45
2022-09-16T16:14:43.646Z,17.27
2022-09-16T16:19:48.448Z,17.13
2022-09-16T16:24:51.042Z,17.13
2022-09-16T16:29:53.364Z,16.98
2022-09-16T16:34:58.150Z,16.66
2022-09-16T16:40:00.714Z,16.15
2022-09-16T16:45:03.026Z,16.09
2022-09-16T16:50:05.895Z,16.15
2022-09-16T16:55:08.521Z,16.52
2022-09-16T17:00:13.654Z,16.21
2022-09-16T17:05:16.008Z,16.22
2022-09-16T17:10:18.381Z,16.15
2022-09-16T17:15:20.754Z,15.93
2022-09-16T17:20:23.243Z,15.97
2022-09-16T17:25:25.588Z,15.80
2022-09-16T17:30:28.043Z,15.67
2022-09-16T17:35:30.379Z,15.67
2022-09-16T17:40:32.917Z,15.79
2022-09-16T17:45:35.335Z,15.39
2022-09-16T17:50:38.792Z,15.34
2022-09-16T17:55:41.177Z,15.38
2022-09-16T18:00:44.365Z,15.26
2022-09-16T18:05:46.913Z,15.20
2022-09-16T18:10:55.537Z,15.10
2022-09-16T18:16:07.207Z,15.02
2022-09-16T18:21:12.155Z,14.75
2022-09-16T18:26:15.349Z,14.41
2022-09-16T18:31:20.749Z,14.31
2022-09-16T18:36:25.591Z,14.30
2022-09-16T18:41:35.912Z,14.12
2022-09-16T18:46:39.098Z,13.85
2022-09-16T18:51:48.526Z,14.05
2022-09-16T18:56:55.803Z,14.15
2022-09-16T19:02:00.040Z,14.28
2022-09-16T19:07:08.897Z,14.34
2022-09-16T19:12:13.000Z,14.42
2022-09-16T19:17:15.365Z,14.28
2022-09-16T19:22:18.428Z,14.29
2022-09-16T19:27:20.832Z,14.23
2022-09-16T19:32:23.242Z,14.35
2022-09-16T19:37:25.723Z,14.49
2022-09-16T19:42:28.326Z,14.47
2022-09-16T19:47:30.667Z,14.41
2022-09-16T19:52:33.171Z,14.56
2022-09-16T19:57:36.375Z,14.46
2022-09-16T20:02:38.769Z,14.36
2022-09-16T20:07:41.115Z,14.21
2022-09-16T20:12:43.443Z,14.18
2022-09-16T20:17:45.817Z,14.24
2022-09-16T20:22:48.234Z,14.39
2022-09-16T20:27:50.976Z,14.61
2022-09-16T20:32:53.324Z,14.66
2022-09-16T20:37:55.624Z,14.68
2022-09-16T20:42:58.273Z,14.59
2022-09-16T20:48:00.597Z,14.65
2022-09-16T20:53:02.926Z,14.68
2022-09-16T20:58:05.285Z,14.74
2022-09-16T21:03:07.659Z,14.68
2022-09-16T21:08:09.979Z,14.70
2022-09-16T21:13:12.271Z,14.62
2022-09-16T21:18:15.052Z,14.50
2022-09-16T21:23:17.352Z,14.62
2022-09-16T21:28:19.742Z,14.67
2022-09-16T21:33:22.820Z,14.57
2022-09-16T21:38:25.863Z,14.54
2022-09-16T21:43:30.667Z,14.50
2022-09-16T21:48:33.327Z,14.49
2022-09-16T21:53:45.777Z,14.43
2022-09-16T21:58:49.651Z,14.22
2022-09-16T22:04:00.371Z,14.03
2022-09-16T22:09:07.059Z,13.76
2022-09-16T22:14:10.915Z,13.56
2022-09-16T22:19:15.905Z,13.42
2022-09-16T22:24:22.182Z,13.36
2022-09-16T22:29:24.663Z,12.72
2022-09-16T22:34:27.005Z,12.82
2022-09-16T22:39:29.518Z,12.84
2022-09-16T22:44:31.880Z,13.03
2022-09-16T22:49:34.202Z,12.93
2022-09-16T22:54:36.505Z,12.90
2022-09-16T22:59:38.860Z,12.93
2022-09-16T23:04:41.229Z,13.07
2022-09-16T23:09:43.722Z,13.12
2022-09-16T23:14:46.072Z,13.21
2022-09-16T23:19:48.382Z,13.32
2022-09-16T23:24:50.713Z,13.29
2022-09-16T23:29:53.056Z,13.30
2022-09-16T23:34:55.420Z,13.50
2022-09-16T23:39:57.785Z,13.46
2022-09-16T23:45:00.147Z,13.45
2022-09-16T23:50:02.459Z,13.50
2022-09-16T23:55:05.741Z,13.46
